createdAt,value
2023-03-18T00:00:16.803Z,56.67
2023-03-18T00:02:44.011Z,56.57
2023-03-18T00:05:12.962Z,56.30
2023-03-18T00:07:41.634Z,56.49
2023-03-18T00:10:11.980Z,56.25
2023-03-18T00:12:41.070Z,56.80
2023-03-18T00:15:11.828Z,56.57
2023-03-18T00:17:41.199Z,56.73
2023-03-18T00:20:09.835Z,56.78
2023-03-18T00:22:38.150Z,56.85
2023-03-18T00:25:08.210Z,56.48
2023-03-18T00:27:36.078Z,56.13
2023-03-18T00:30:05.620Z,56.34
2023-03-18T00:32:33.015Z,56.13
2023-03-18T00:35:01.195Z,56.25
2023-03-18T00:37:31.591Z,56.77
2023-03-18T00:40:06.117Z,56.55
2023-03-18T00:42:39.070Z,56.20
2023-03-18T00:45:10.373Z,57.05
2023-03-18T00:47:38.471Z,56.62
2023-03-18T00:50:08.861Z,56.85
2023-03-18T00:52:37.601Z,56.51
2023-03-18T00:55:06.906Z,57.00
2023-03-18T00:57:34.245Z,57.10
2023-03-18T01:00:01.251Z,56.99
2023-03-18T01:02:29.738Z,56.73
2023-03-18T01:04:57.104Z,57.34
2023-03-18T01:07:25.274Z,57.24
2023-03-18T01:09:52.736Z,56.92
2023-03-18T01:12:19.734Z,57.08
2023-03-18T01:14:47.033Z,57.34
2023-03-18T01:17:14.521Z,56.75
2023-03-18T01:19:42.328Z,56.97
2023-03-18T01:22:09.650Z,57.13
2023-03-18T01:24:36.574Z,56.96
2023-03-18T01:27:04.316Z,57.33
2023-03-18T01:29:31.241Z,57.50
2023-03-18T01:31:58.181Z,57.38
2023-03-18T01:34:25.183Z,57.49
2023-03-18T01:36:52.413Z,57.20
2023-03-18T01:39:19.372Z,57.37
2023-03-18T01:41:46.842Z,56.95
2023-03-18T01:44:23.304Z,57.05
2023-03-18T01:46:52.904Z,57.22
2023-03-18T01:49:36.445Z,57.44
2023-03-18T01:52:17.097Z,56.99
2023-03-18T01:54:55.949Z,57.04
2023-03-18T01:57:24.077Z,57.06
2023-03-18T01:59:53.890Z,57.45
2023-03-18T02:02:21.473Z,57.57
2023-03-18T02:04:55.077Z,56.96
2023-03-18T02:07:31.627Z,56.86
2023-03-18T02:10:03.672Z,57.24
2023-03-18T02:12:35.514Z,57.11
2023-03-18T02:15:10.501Z,56.94
2023-03-18T02:18:00.994Z,56.83
2023-03-18T02:20:45.962Z,56.80
2023-03-18T02:23:34.686Z,57.12
2023-03-18T02:26:28.729Z,57.31
2023-03-18T02:29:01.400Z,57.37
2023-03-18T02:31:29.682Z,56.93
2023-03-18T02:33:58.232Z,57.50
2023-03-18T02:36:28.329Z,57.48
2023-03-18T02:38:56.980Z,57.47
2023-03-18T02:41:32.438Z,56.74
2023-03-18T02:43:59.592Z,57.17
2023-03-18T02:46:49.175Z,57.41
2023-03-18T02:49:19.172Z,57.51
2023-03-18T02:51:46.709Z,57.04
2023-03-18T02:54:18.873Z,57.48
2023-03-18T02:56:46.088Z,57.55
2023-03-18T02:59:14.284Z,57.00
2023-03-18T03:01:44.792Z,57.41
2023-03-18T03:04:13.109Z,57.71
2023-03-18T03:06:40.736Z,57.63
2023-03-18T03:09:10.852Z,57.29
2023-03-18T03:11:38.124Z,57.17
2023-03-18T03:14:05.378Z,57.47
2023-03-18T03:16:32.324Z,57.54
2023-03-18T03:19:15.054Z,57.32
2023-03-18T03:22:15.423Z,57.29
2023-03-18T03:25:00.311Z,57.97
2023-03-18T03:27:41.254Z,57.92
2023-03-18T03:30:24.524Z,57.72
2023-03-18T03:33:06.474Z,58.00
2023-03-18T03:35:43.416Z,58.09
2023-03-18T03:38:22.843Z,57.68
2023-03-18T03:40:55.323Z,57.66
2023-03-18T03:43:52.694Z,58.03
2023-03-18T03:46:39.398Z,58.46
2023-03-18T03:49:18.733Z,58.55
2023-03-18T03:51:52.277Z,58.58
2023-03-18T03:54:48.321Z,58.47
2023-03-18T03:57:42.255Z,58.67
2023-03-18T04:00:22.844Z,58.56
2023-03-18T04:03:10.807Z,58.40
2023-03-18T04:05:39.950Z,58.94
2023-03-18T04:08:08.332Z,58.75
2023-03-18T04:10:39.306Z,58.54
2023-03-18T04:13:07.295Z,58.96
2023-03-18T04:15:34.789Z,58.67
2023-03-18T04:18:10.522Z,58.85
2023-03-18T04:20:49.782Z,59.03
2023-03-18T04:23:28.652Z,58.87
2023-03-18T04:26:13.444Z,59.27
2023-03-18T04:29:01.755Z,59.46
2023-03-18T04:31:43.457Z,59.39
2023-03-18T04:37:23.795Z,59.50
2023-03-18T04:40:01.324Z,59.50
2023-03-18T04:42:34.808Z,59.05
2023-03-18T04:45:16.395Z,59.54
2023-03-18T04:47:52.952Z,59.49
2023-03-18T04:50:53.505Z,59.04
2023-03-18T04:53:29.938Z,59.43
2023-03-18T04:56:10.541Z,59.43
2023-03-18T04:58:56.024Z,59.67
2023-03-18T05:01:27.089Z,59.55
2023-03-18T05:04:11.352Z,59.11
2023-03-18T05:06:51.258Z,59.52
2023-03-18T05:09:37.055Z,59.33
2023-03-18T05:12:21.608Z,59.43
2023-03-18T05:14:54.966Z,59.18
2023-03-18T05:17:32.186Z,59.40
2023-03-18T05:20:06.728Z,58.89
2023-03-18T05:22:49.566Z,59.17
2023-03-18T05:25:45.468Z,59.51
2023-03-18T05:28:31.280Z,59.12
2023-03-18T05:31:09.032Z,58.81
2023-03-18T05:33:51.569Z,58.93
2023-03-18T05:36:46.109Z,59.25
2023-03-18T05:39:28.975Z,58.97
2023-03-18T05:42:08.328Z,59.18
2023-03-18T05:44:52.630Z,59.25
2023-03-18T05:47:38.819Z,59.19
2023-03-18T05:50:14.260Z,58.75
2023-03-18T05:52:46.701Z,59.12
2023-03-18T05:55:20.953Z,58.78
2023-03-18T05:57:57.852Z,58.60
2023-03-18T06:00:35.602Z,58.90
2023-03-18T06:03:21.357Z,58.53
2023-03-18T06:05:53.759Z,58.62
2023-03-18T06:08:36.301Z,58.74
2023-03-18T06:11:18.433Z,58.26
2023-03-18T06:13:55.831Z,57.94
2023-03-18T06:16:35.976Z,58.01
2023-03-18T06:19:07.930Z,58.00
2023-03-18T06:21:50.910Z,58.44
2023-03-18T06:24:28.025Z,57.85
2023-03-18T06:27:06.463Z,58.32
2023-03-18T06:29:51.956Z,57.78
2023-03-18T06:32:33.778Z,57.76
2023-03-18T06:35:11.230Z,58.21
2023-03-18T06:38:02.166Z,57.98
2023-03-18T06:40:42.148Z,57.75
2023-03-18T06:43:25.215Z,57.89
2023-03-18T06:45:57.337Z,57.34
2023-03-18T06:48:43.078Z,57.56
2023-03-18T06:51:16.568Z,57.84
2023-03-18T06:53:48.463Z,57.62
2023-03-18T06:56:25.143Z,57.04
2023-03-18T06:59:12.629Z,57.01
2023-03-18T07:01:50.106Z,56.86
2023-03-18T07:04:34.621Z,56.79
2023-03-18T07:07:02.682Z,56.18
2023-03-18T07:09:36.865Z,55.50
2023-03-18T07:12:11.981Z,55.00
2023-03-18T07:14:46.652Z,54.60
2023-03-18T07:17:34.074Z,53.99
2023-03-18T07:20:08.808Z,53.26
2023-03-18T07:22:41.262Z,52.42
2023-03-18T07:25:22.820Z,51.69
2023-03-18T07:27:59.748Z,50.74
2023-03-18T07:30:37.253Z,49.81
2023-03-18T07:33:16.320Z,49.63
2023-03-18T07:35:54.504Z,49.14
2023-03-18T07:38:52.920Z,48.71
2023-03-18T07:41:37.893Z,48.07
2023-03-18T07:44:13.248Z,47.47
2023-03-18T07:46:57.925Z,46.29
2023-03-18T07:49:25.673Z,45.89
2023-03-18T07:52:06.710Z,44.91
2023-03-18T07:54:43.159Z,43.92
2023-03-18T07:57:25.617Z,43.17
2023-03-18T08:00:07.446Z,42.42
2023-03-18T08:02:46.087Z,41.43
2023-03-18T08:05:20.408Z,40.66
2023-03-18T08:08:17.550Z,39.92
2023-03-18T08:11:06.983Z,39.83
2023-03-18T08:13:35.712Z,39.73
2023-03-18T08:16:07.237Z,39.25
2023-03-18T08:18:54.050Z,38.35
2023-03-18T08:21:25.324Z,38.23
2023-03-18T08:23:58.859Z,37.65
2023-03-18T08:26:29.648Z,37.17
2023-03-18T08:29:01.459Z,36.94
2023-03-18T08:31:29.351Z,37.00
2023-03-18T08:34:02.118Z,36.56
2023-03-18T08:36:39.043Z,36.43
2023-03-18T08:39:13.345Z,35.89
2023-03-18T08:41:45.795Z,34.86
2023-03-18T08:44:20.533Z,35.27
2023-03-18T08:47:02.814Z,35.60
2023-03-18T08:49:36.217Z,35.55
2023-03-18T08:52:20.808Z,35.84
2023-03-18T08:54:58.059Z,35.95
2023-03-18T08:57:36.475Z,36.83
2023-03-18T09:00:12.915Z,37.01
2023-03-18T09:02:59.351Z,37.42
2023-03-18T09:05:59.931Z,37.69
2023-03-18T09:08:49.148Z,37.71
2023-03-18T09:11:38.114Z,38.01
2023-03-18T09:14:29.020Z,37.98
2023-03-18T09:17:08.314Z,38.48
2023-03-18T09:23:45.305Z,37.76
2023-03-18T09:26:12.795Z,37.11
2023-03-18T09:28:39.662Z,36.41
2023-03-18T09:31:06.842Z,35.53
2023-03-18T09:33:36.915Z,35.84
2023-03-18T09:36:05.279Z,35.47
2023-03-18T09:38:32.429Z,35.32
2023-03-18T09:41:08.143Z,34.87
2023-03-18T09:44:17.770Z,34.82
2023-03-18T09:47:34.601Z,34.55
2023-03-18T09:50:29.121Z,34.16
2023-03-18T09:53:37.620Z,33.54
2023-03-18T09:56:06.328Z,33.55
2023-03-18T09:58:48.487Z,32.38
2023-03-18T10:01:16.885Z,31.92
2023-03-18T10:04:08.165Z,100.00
2023-03-18T10:06:37.576Z,100.00
2023-03-18T10:09:04.398Z,100.00
2023-03-18T10:11:35.903Z,100.00
2023-03-18T10:14:24.389Z,100.00
2023-03-18T10:17:31.286Z,100.00
2023-03-18T10:20:04.488Z,100.00
2023-03-18T10:22:54.894Z,100.00
2023-03-18T10:25:30.935Z,100.00
2023-03-18T10:28:39.124Z,100.00
2023-03-18T10:31:07.285Z,100.00
2023-03-18T10:34:04.315Z,100.00
2023-03-18T10:37:16.301Z,100.00
2023-03-18T10:39:45.706Z,100.00
2023-03-18T10:42:30.768Z,100.00
2023-03-18T10:45:23.331Z,100.00
2023-03-18T10:48:10.676Z,100.00
2023-03-18T10:50:46.424Z,100.00
2023-03-18T10:53:37.055Z,100.00
2023-03-18T10:56:10.564Z,100.00
2023-03-18T10:58:41.909Z,100.00
2023-03-18T11:01:13.143Z,100.00
2023-03-18T11:03:52.085Z,100.00
2023-03-18T11:06:41.709Z,100.00
2023-03-18T11:09:17.025Z,100.00
2023-03-18T11:11:50.299Z,100.00
2023-03-18T11:14:22.872Z,100.00
2023-03-18T11:17:00.068Z,100.00
2023-03-18T11:19:38.586Z,100.00
2023-03-18T11:22:23.427Z,100.00
2023-03-18T11:25:16.433Z,100.00
2023-03-18T11:31:11.159Z,100.00
2023-03-18T11:33:38.893Z,100.00
2023-03-18T11:36:09.015Z,100.00
2023-03-18T11:38:37.538Z,100.00
2023-03-18T11:41:08.950Z,100.00
2023-03-18T11:43:38.392Z,100.00
2023-03-18T11:46:09.034Z,100.00
2023-03-18T11:48:40.539Z,100.00
2023-03-18T11:51:28.627Z,100.00
2023-03-18T11:54:22.560Z,100.00
2023-03-18T11:56:58.082Z,100.00
2023-03-18T11:59:38.429Z,100.00
2023-03-18T12:02:35.404Z,100.00
2023-03-18T12:05:39.281Z,100.00
2023-03-18T12:08:28.180Z,100.00
2023-03-18T12:11:25.331Z,100.00
2023-03-18T12:14:33.410Z,100.00
2023-03-18T12:17:15.204Z,100.00
2023-03-18T12:20:09.979Z,100.00
2023-03-18T12:22:44.600Z,100.00
2023-03-18T12:25:37.053Z,100.00
2023-03-18T12:28:26.569Z,100.00
2023-03-18T12:31:20.001Z,100.00
2023-03-18T12:34:04.354Z,100.00
2023-03-18T12:36:57.391Z,100.00
2023-03-18T12:40:12.612Z,100.00
2023-03-18T12:43:35.408Z,100.00
2023-03-18T12:46:19.188Z,100.00
2023-03-18T12:49:23.896Z,100.00
2023-03-18T12:52:02.843Z,100.00
2023-03-18T12:54:40.291Z,100.00
2023-03-18T12:57:22.880Z,100.00
2023-03-18T12:59:59.134Z,100.00
2023-03-18T13:02:50.963Z,100.00
2023-03-18T13:05:45.536Z,100.00
2023-03-18T13:08:24.312Z,100.00
2023-03-18T13:11:05.148Z,100.00
2023-03-18T13:13:35.642Z,100.00
2023-03-18T13:16:04.994Z,100.00
2023-03-18T13:18:43.783Z,100.00
2023-03-18T13:21:21.306Z,100.00
2023-03-18T13:24:13.663Z,100.00
2023-03-18T13:27:27.948Z,100.00
2023-03-18T13:30:16.447Z,100.00
2023-03-18T13:32:58.312Z,100.00
2023-03-18T13:35:43.616Z,100.00
2023-03-18T13:38:45.950Z,100.00
2023-03-18T13:42:03.873Z,100.00
2023-03-18T13:44:46.121Z,100.00
2023-03-18T13:47:19.438Z,100.00
2023-03-18T13:49:47.677Z,100.00
2023-03-18T13:52:33.738Z,100.00
2023-03-18T13:55:07.342Z,100.00
2023-03-18T13:57:48.749Z,100.00
2023-03-18T14:00:36.208Z,100.00
2023-03-18T14:03:31.483Z,100.00
2023-03-18T14:06:04.515Z,100.00
2023-03-18T14:08:42.285Z,100.00
2023-03-18T14:11:22.800Z,100.00
2023-03-18T14:13:55.645Z,100.00
2023-03-18T14:16:30.878Z,100.00
2023-03-18T14:19:22.475Z,100.00
2023-03-18T14:22:16.052Z,100.00
2023-03-18T14:24:44.639Z,100.00
2023-03-18T14:27:18.856Z,100.00
2023-03-18T14:29:48.020Z,100.00
2023-03-18T14:32:33.615Z,100.00
2023-03-18T14:35:18.630Z,100.00
2023-03-18T14:38:25.074Z,100.00
2023-03-18T14:40:54.687Z,100.00
2023-03-18T14:43:30.079Z,100.00
2023-03-18T14:46:02.818Z,100.00
2023-03-18T14:48:34.011Z,100.00
2023-03-18T14:51:09.016Z,100.00
2023-03-18T14:53:53.557Z,100.00
2023-03-18T14:56:29.311Z,100.00
2023-03-18T14:58:56.682Z,100.00
2023-03-18T15:01:46.273Z,100.00
2023-03-18T15:04:22.708Z,100.00
2023-03-18T15:06:50.842Z,100.00
2023-03-18T15:09:30.195Z,100.00
2023-03-18T15:11:57.723Z,100.00
2023-03-18T15:14:30.042Z,100.00
2023-03-18T15:17:01.790Z,100.00
2023-03-18T15:19:29.908Z,100.00
2023-03-18T15:22:06.275Z,100.00
2023-03-18T15:24:33.698Z,100.00
2023-03-18T15:27:22.684Z,100.00
2023-03-18T15:29:55.893Z,100.00
2023-03-18T15:32:52.443Z,100.00
2023-03-18T15:35:30.359Z,100.00
2023-03-18T15:38:10.059Z,100.00
2023-03-18T15:41:14.082Z,100.00
2023-03-18T15:43:49.900Z,100.00
2023-03-18T15:46:28.451Z,100.00
2023-03-18T15:48:57.217Z,100.00
2023-03-18T15:51:47.806Z,100.00
2023-03-18T15:54:29.381Z,100.00
2023-03-18T15:56:58.957Z,100.00
2023-03-18T15:59:34.857Z,100.00
2023-03-18T16:02:02.209Z,100.00
2023-03-18T16:04:34.177Z,100.00
2023-03-18T16:07:01.160Z,100.00
2023-03-18T16:09:28.093Z,100.00
2023-03-18T16:12:05.583Z,100.00
2023-03-18T16:14:39.882Z,100.00
2023-03-18T16:17:07.034Z,100.00
2023-03-18T16:19:34.065Z,100.00
2023-03-18T16:22:02.453Z,100.00
2023-03-18T16:24:29.845Z,100.00
2023-03-18T16:26:57.407Z,100.00
2023-03-18T16:29:34.407Z,100.00
2023-03-18T16:32:01.843Z,100.00
2023-03-18T16:34:28.897Z,100.00
2023-03-18T16:36:56.097Z,100.00
2023-03-18T16:39:29.135Z,100.00
2023-03-18T16:41:56.390Z,100.00
2023-03-18T16:44:23.680Z,100.00
2023-03-18T16:46:54.473Z,100.00
2023-03-18T16:49:31.174Z,100.00
2023-03-18T16:51:58.795Z,100.00
2023-03-18T16:54:28.953Z,100.00
2023-03-18T16:57:06.944Z,100.00
2023-03-18T16:59:37.111Z,100.00
2023-03-18T17:02:04.781Z,100.00
2023-03-18T17:04:35.617Z,100.00
2023-03-18T17:07:04.654Z,100.00
2023-03-18T17:09:32.074Z,100.00
2023-03-18T17:12:04.640Z,100.00
2023-03-18T17:14:46.823Z,100.00
2023-03-18T17:17:38.119Z,100.00
2023-03-18T17:20:17.676Z,100.00
2023-03-18T17:22:45.060Z,100.00
2023-03-18T17:25:12.287Z,100.00
2023-03-18T17:27:57.112Z,100.00
2023-03-18T17:30:38.905Z,100.00
2023-03-18T17:33:31.653Z,100.00
2023-03-18T17:36:01.495Z,100.00
2023-03-18T17:38:31.127Z,100.00
2023-03-18T17:40:59.679Z,100.00
2023-03-18T17:43:35.888Z,100.00
2023-03-18T17:46:04.819Z,100.00
2023-03-18T17:48:35.043Z,100.00
2023-03-18T17:51:05.198Z,100.00
2023-03-18T17:53:48.168Z,100.00
2023-03-18T17:56:18.373Z,100.00
2023-03-18T17:58:47.913Z,100.00
2023-03-18T18:01:22.229Z,100.00
2023-03-18T18:04:01.024Z,100.00
2023-03-18T18:06:35.429Z,100.00
2023-03-18T18:09:26.969Z,100.00
2023-03-18T18:11:58.096Z,100.00
2023-03-18T18:14:38.974Z,100.00
2023-03-18T18:17:25.474Z,100.00
2023-03-18T18:20:04.205Z,100.00
2023-03-18T18:23:02.344Z,100.00
2023-03-18T18:25:53.133Z,100.00
2023-03-18T18:28:27.396Z,100.00
2023-03-18T18:31:04.558Z,100.00
2023-03-18T18:33:48.992Z,100.00
2023-03-18T18:36:53.060Z,100.00
2023-03-18T18:39:26.496Z,100.00
2023-03-18T18:42:19.839Z,100.00
2023-03-18T18:45:08.675Z,100.00
2023-03-18T18:47:54.821Z,100.00
2023-03-18T18:50:40.139Z,100.00
2023-03-18T18:53:30.442Z,100.00
2023-03-18T18:56:17.396Z,100.00
2023-03-18T18:58:55.552Z,100.00
2023-03-18T19:01:35.208Z,100.00
2023-03-18T19:04:09.225Z,100.00
2023-03-18T19:06:57.876Z,100.00
2023-03-18T19:09:34.837Z,100.00
2023-03-18T19:12:09.381Z,100.00
2023-03-18T19:14:49.477Z,100.00
2023-03-18T19:17:27.779Z,100.00
2023-03-18T19:20:01.658Z,100.00
2023-03-18T19:22:33.009Z,100.00
2023-03-18T19:25:23.123Z,100.00
2023-03-18T19:27:52.305Z,100.00
2023-03-18T19:30:32.945Z,100.00
